sensor_id;sensor_type;location;lat;lon;timestamp;P1;P2;P0
73414;PMS5003;61633;53.742;-2.990;2022-07-22T00:02:05;3;3;
73414;PMS5003;61633;53.742;-2.990;2022-07-22T00:04:30;2;2;
73414;PMS5003;61633;53.742;-2.990;2022-07-22T00:06:56;3;3;
73414;PMS5003;61633;53.742;-2.990;2022-07-22T00:09:22;2;2;
73414;PMS5003;61633;53.742;-2.990;2022-07-22T00:11:47;5;5;
73414;PMS5003;61633;53.742;-2.990;2022-07-22T00:14:13;3;3;
73414;PMS5003;61633;53.742;-2.990;2022-07-22T00:16:38;3;3;
73414;PMS5003;61633;53.742;-2.990;2022-07-22T00:19:04;4;4;
73414;PMS5003;61633;53.742;-2.990;2022-07-22T00:21:29;2;2;
73414;PMS5003;61633;53.742;-2.990;2022-07-22T00:23:54;2;2;
73414;PMS5003;61633;53.742;-2.990;2022-07-22T00:26:20;3;3;
73414;PMS5003;61633;53.742;-2.990;2022-07-22T00:28:45;4;3;
73414;PMS5003;61633;53.742;-2.990;2022-07-22T00:31:11;5;4;
73414;PMS5003;61633;53.742;-2.990;2022-07-22T00:33:36;4;2;
73414;PMS5003;61633;53.742;-2.990;2022-07-22T00:36:02;3;3;
73414;PMS5003;61633;53.742;-2.990;2022-07-22T00:38:27;4;2;
73414;PMS5003;61633;53.742;-2.990;2022-07-22T00:40:53;3;3;
73414;PMS5003;61633;53.742;-2.990;2022-07-22T00:43:18;4;4;
73414;PMS5003;61633;53.742;-2.990;2022-07-22T00:45:44;5;5;
73414;PMS5003;61633;53.742;-2.990;2022-07-22T00:48:10;3;3;
73414;PMS5003;61633;53.742;-2.990;2022-07-22T00:50:35;4;4;
73414;PMS5003;61633;53.742;-2.990;2022-07-22T00:53:01;3;3;
73414;PMS5003;61633;53.742;-2.990;2022-07-22T00:55:26;4;3;
73414;PMS5003;61633;53.742;-2.990;2022-07-22T00:57:52;4;4;
73414;PMS5003;61633;53.742;-2.990;2022-07-22T01:00:18;2;2;
73414;PMS5003;61633;53.742;-2.990;2022-07-22T01:02:42;4;3;
73414;PMS5003;61633;53.742;-2.990;2022-07-22T01:05:08;6;4;
73414;PMS5003;61633;53.742;-2.990;2022-07-22T01:07:34;6;5;
73414;PMS5003;61633;53.742;-2.990;2022-07-22T01:09:59;4;4;
73414;PMS5003;61633;53.742;-2.990;2022-07-22T01:12:25;5;3;
73414;PMS5003;61633;53.742;-2.990;2022-07-22T01:14:50;6;5;
73414;PMS5003;61633;53.742;-2.990;2022-07-22T01:17:16;4;4;
73414;PMS5003;61633;53.742;-2.990;2022-07-22T01:19:41;3;3;
73414;PMS5003;61633;53.742;-2.990;2022-07-22T01:22:06;5;4;
73414;PMS5003;61633;53.742;-2.990;2022-07-22T01:24:32;5;5;
73414;PMS5003;61633;53.742;-2.990;2022-07-22T01:26:58;6;4;
73414;PMS5003;61633;53.742;-2.990;2022-07-22T01:29:23;7;5;
73414;PMS5003;61633;53.742;-2.990;2022-07-22T01:31:49;7;6;
73414;PMS5003;61633;53.742;-2.990;2022-07-22T01:34:14;7;7;
73414;PMS5003;61633;53.742;-2.990;2022-07-22T01:36:39;4;4;
73414;PMS5003;61633;53.742;-2.990;2022-07-22T01:39:05;6;6;
73414;PMS5003;61633;53.742;-2.990;2022-07-22T01:41:30;11;8;
73414;PMS5003;61633;53.742;-2.990;2022-07-22T01:43:56;7;7;
73414;PMS5003;61633;53.742;-2.990;2022-07-22T01:46:22;7;6;
73414;PMS5003;61633;53.742;-2.990;2022-07-22T01:48:47;7;7;
73414;PMS5003;61633;53.742;-2.990;2022-07-22T01:51:13;10;10;
73414;PMS5003;61633;53.742;-2.990;2022-07-22T01:53:38;10;10;
73414;PMS5003;61633;53.742;-2.990;2022-07-22T01:56:03;13;11;
73414;PMS5003;61633;53.742;-2.990;2022-07-22T01:58:29;11;11;
73414;PMS5003;61633;53.742;-2.990;2022-07-22T02:00:54;14;13;
73414;PMS5003;61633;53.742;-2.990;2022-07-22T02:03:20;18;14;
73414;PMS5003;61633;53.742;-2.990;2022-07-22T02:05:45;12;11;
73414;PMS5003;61633;53.742;-2.990;2022-07-22T02:08:10;13;12;
73414;PMS5003;61633;53.742;-2.990;2022-07-22T02:10:36;18;16;
73414;PMS5003;61633;53.742;-2.990;2022-07-22T02:13:02;16;16;
73414;PMS5003;61633;53.742;-2.990;2022-07-22T02:15:27;15;14;
73414;PMS5003;61633;53.742;-2.990;2022-07-22T02:17:52;19;18;
73414;PMS5003;61633;53.742;-2.990;2022-07-22T02:20:18;20;17;
73414;PMS5003;61633;53.742;-2.990;2022-07-22T02:22:43;23;23;
73414;PMS5003;61633;53.742;-2.990;2022-07-22T02:25:09;22;19;
73414;PMS5003;61633;53.742;-2.990;2022-07-22T02:27:34;20;17;
73414;PMS5003;61633;53.742;-2.990;2022-07-22T02:30:00;24;24;
73414;PMS5003;61633;53.742;-2.990;2022-07-22T02:32:25;24;23;
73414;PMS5003;61633;53.742;-2.990;2022-07-22T02:34:51;24;21;
73414;PMS5003;61633;53.742;-2.990;2022-07-22T02:37:16;24;21;
73414;PMS5003;61633;53.742;-2.990;2022-07-22T02:39:42;22;22;
73414;PMS5003;61633;53.742;-2.990;2022-07-22T02:42:08;23;23;
73414;PMS5003;61633;53.742;-2.990;2022-07-22T02:44:33;21;20;
73414;PMS5003;61633;53.742;-2.990;2022-07-22T02:46:58;24;23;
73414;PMS5003;61633;53.742;-2.990;2022-07-22T02:49:24;27;27;
73414;PMS5003;61633;53.742;-2.990;2022-07-22T02:51:50;25;22;
73414;PMS5003;61633;53.742;-2.990;2022-07-22T02:54:15;22;21;
73414;PMS5003;61633;53.742;-2.990;2022-07-22T02:56:41;20;19;
73414;PMS5003;61633;53.742;-2.990;2022-07-22T02:59:06;27;23;
73414;PMS5003;61633;53.742;-2.990;2022-07-22T03:01:32;21;21;
73414;PMS5003;61633;53.742;-2.990;2022-07-22T03:03:57;23;21;
73414;PMS5003;61633;53.742;-2.990;2022-07-22T03:06:22;18;18;
73414;PMS5003;61633;53.742;-2.990;2022-07-22T03:08:48;18;18;
73414;PMS5003;61633;53.742;-2.990;2022-07-22T03:11:13;19;18;
73414;PMS5003;61633;53.742;-2.990;2022-07-22T03:13:39;20;20;
73414;PMS5003;61633;53.742;-2.990;2022-07-22T03:16:05;19;18;
73414;PMS5003;61633;53.742;-2.990;2022-07-22T03:18:30;17;16;
73414;PMS5003;61633;53.742;-2.990;2022-07-22T03:20:56;19;17;
73414;PMS5003;61633;53.742;-2.990;2022-07-22T03:23:21;21;21;
73414;PMS5003;61633;53.742;-2.990;2022-07-22T03:25:46;18;18;
73414;PMS5003;61633;53.742;-2.990;2022-07-22T03:28:11;19;18;
73414;PMS5003;61633;53.742;-2.990;2022-07-22T03:30:37;15;15;
73414;PMS5003;61633;53.742;-2.990;2022-07-22T03:33:03;17;16;
73414;PMS5003;61633;53.742;-2.990;2022-07-22T03:35:27;15;15;
73414;PMS5003;61633;53.742;-2.990;2022-07-22T03:37:53;15;15;
73414;PMS5003;61633;53.742;-2.990;2022-07-22T03:40:18;13;13;
73414;PMS5003;61633;53.742;-2.990;2022-07-22T03:42:44;19;16;
73414;PMS5003;61633;53.742;-2.990;2022-07-22T03:45:09;12;12;
73414;PMS5003;61633;53.742;-2.990;2022-07-22T03:47:35;14;11;
73414;PMS5003;61633;53.742;-2.990;2022-07-22T03:50:01;19;17;
73414;PMS5003;61633;53.742;-2.990;2022-07-22T03:52:26;14;13;
73414;PMS5003;61633;53.742;-2.990;2022-07-22T03:54:51;13;12;
73414;PMS5003;61633;53.742;-2.990;2022-07-22T03:57:17;17;15;
73414;PMS5003;61633;53.742;-2.990;2022-07-22T03:59:43;16;16;
73414;PMS5003;61633;53.742;-2.990;2022-07-22T04:02:09;13;13;
73414;PMS5003;61633;53.742;-2.990;2022-07-22T04:04:34;16;15;
73414;PMS5003;61633;53.742;-2.990;2022-07-22T04:06:59;12;12;
73414;PMS5003;61633;53.742;-2.990;2022-07-22T04:09:24;15;13;
73414;PMS5003;61633;53.742;-2.990;2022-07-22T04:11:49;16;15;
73414;PMS5003;61633;53.742;-2.990;2022-07-22T04:14:16;17;16;
73414;PMS5003;61633;53.742;-2.990;2022-07-22T04:16:40;13;13;
73414;PMS5003;61633;53.742;-2.990;2022-07-22T04:19:06;15;15;
73414;PMS5003;61633;53.742;-2.990;2022-07-22T04:21:31;17;17;
73414;PMS5003;61633;53.742;-2.990;2022-07-22T04:23:57;14;14;
73414;PMS5003;61633;53.742;-2.990;2022-07-22T04:26:22;17;16;
73414;PMS5003;61633;53.742;-2.990;2022-07-22T04:28:47;15;14;
73414;PMS5003;61633;53.742;-2.990;2022-07-22T04:31:12;17;16;
73414;PMS5003;61633;53.742;-2.990;2022-07-22T04:33:38;13;13;
73414;PMS5003;61633;53.742;-2.990;2022-07-22T04:36:04;10;9;
73414;PMS5003;61633;53.742;-2.990;2022-07-22T04:38:29;13;11;
73414;PMS5003;61633;53.742;-2.990;2022-07-22T04:40:55;14;12;
73414;PMS5003;61633;53.742;-2.990;2022-07-22T04:43:20;13;13;
73414;PMS5003;61633;53.742;-2.990;2022-07-22T04:45:46;12;11;
73414;PMS5003;61633;53.742;-2.990;2022-07-22T04:48:11;9;9;
73414;PMS5003;61633;53.742;-2.990;2022-07-22T04:50:37;12;11;
73414;PMS5003;61633;53.742;-2.990;2022-07-22T04:53:02;10;10;
73414;PMS5003;61633;53.742;-2.990;2022-07-22T04:55:27;10;10;
73414;PMS5003;61633;53.742;-2.990;2022-07-22T04:57:53;12;12;
73414;PMS5003;61633;53.742;-2.990;2022-07-22T05:00:18;11;11;
73414;PMS5003;61633;53.742;-2.990;2022-07-22T05:02:43;12;11;
73414;PMS5003;61633;53.742;-2.990;2022-07-22T05:05:09;11;11;
73414;PMS5003;61633;53.742;-2.990;2022-07-22T05:07:35;12;11;
73414;PMS5003;61633;53.742;-2.990;2022-07-22T05:10:00;11;11;
73414;PMS5003;61633;53.742;-2.990;2022-07-22T05:12:25;14;14;
73414;PMS5003;61633;53.742;-2.990;2022-07-22T05:14:51;9;9;
73414;PMS5003;61633;53.742;-2.990;2022-07-22T05:17:16;9;9;
73414;PMS5003;61633;53.742;-2.990;2022-07-22T05:19:42;10;10;
73414;PMS5003;61633;53.742;-2.990;2022-07-22T05:22:08;12;10;
73414;PMS5003;61633;53.742;-2.990;2022-07-22T05:24:33;8;8;
73414;PMS5003;61633;53.742;-2.990;2022-07-22T05:26:58;10;9;
73414;PMS5003;61633;53.742;-2.990;2022-07-22T05:29:24;10;10;
73414;PMS5003;61633;53.742;-2.990;2022-07-22T05:31:50;7;7;
73414;PMS5003;61633;53.742;-2.990;2022-07-22T05:34:15;11;9;
73414;PMS5003;61633;53.742;-2.990;2022-07-22T05:36:41;11;11;
73414;PMS5003;61633;53.742;-2.990;2022-07-22T05:39:06;10;9;
73414;PMS5003;61633;53.742;-2.990;2022-07-22T05:41:32;10;9;
73414;PMS5003;61633;53.742;-2.990;2022-07-22T05:43:57;9;9;
73414;PMS5003;61633;53.742;-2.990;2022-07-22T05:46:23;11;10;
73414;PMS5003;61633;53.742;-2.990;2022-07-22T05:48:48;10;10;
73414;PMS5003;61633;53.742;-2.990;2022-07-22T05:51:14;11;11;
73414;PMS5003;61633;53.742;-2.990;2022-07-22T05:53:39;14;12;
73414;PMS5003;61633;53.742;-2.990;2022-07-22T05:56:05;11;10;
73414;PMS5003;61633;53.742;-2.990;2022-07-22T05:58:30;12;10;
73414;PMS5003;61633;53.742;-2.990;2022-07-22T06:00:56;11;11;
73414;PMS5003;61633;53.742;-2.990;2022-07-22T06:03:21;9;9;
73414;PMS5003;61633;53.742;-2.990;2022-07-22T06:05:47;10;9;
73414;PMS5003;61633;53.742;-2.990;2022-07-22T06:08:12;9;9;
73414;PMS5003;61633;53.742;-2.990;2022-07-22T06:10:38;10;9;
73414;PMS5003;61633;53.742;-2.990;2022-07-22T06:13:08;12;9;
73414;PMS5003;61633;53.742;-2.990;2022-07-22T06:15:28;10;10;
73414;PMS5003;61633;53.742;-2.990;2022-07-22T06:17:54;11;11;
73414;PMS5003;61633;53.742;-2.990;2022-07-22T06:20:19;13;11;
73414;PMS5003;61633;53.742;-2.990;2022-07-22T06:22:45;13;13;
73414;PMS5003;61633;53.742;-2.990;2022-07-22T06:25:11;11;10;
73414;PMS5003;61633;53.742;-2.990;2022-07-22T06:27:37;8;8;
73414;PMS5003;61633;53.742;-2.990;2022-07-22T06:30:03;9;9;
73414;PMS5003;61633;53.742;-2.990;2022-07-22T06:32:27;11;11;
73414;PMS5003;61633;53.742;-2.990;2022-07-22T06:34:53;8;8;
73414;PMS5003;61633;53.742;-2.990;2022-07-22T06:37:18;8;8;
73414;PMS5003;61633;53.742;-2.990;2022-07-22T06:39:43;10;9;
73414;PMS5003;61633;53.742;-2.990;2022-07-22T06:42:09;5;5;
73414;PMS5003;61633;53.742;-2.990;2022-07-22T06:44:35;10;8;
73414;PMS5003;61633;53.742;-2.990;2022-07-22T06:47:00;7;7;
73414;PMS5003;61633;53.742;-2.990;2022-07-22T06:49:26;7;7;
73414;PMS5003;61633;53.742;-2.990;2022-07-22T06:51:51;6;6;
73414;PMS5003;61633;53.742;-2.990;2022-07-22T06:54:16;8;8;
73414;PMS5003;61633;53.742;-2.990;2022-07-22T06:56:42;8;8;
73414;PMS5003;61633;53.742;-2.990;2022-07-22T06:59:07;8;8;
73414;PMS5003;61633;53.742;-2.990;2022-07-22T07:01:33;7;5;
73414;PMS5003;61633;53.742;-2.990;2022-07-22T07:03:58;7;7;
73414;PMS5003;61633;53.742;-2.990;2022-07-22T07:06:24;9;7;
73414;PMS5003;61633;53.742;-2.990;2022-07-22T07:08:49;11;10;
73414;PMS5003;61633;53.742;-2.990;2022-07-22T07:11:15;10;9;
73414;PMS5003;61633;53.742;-2.990;2022-07-22T07:13:40;12;10;
73414;PMS5003;61633;53.742;-2.990;2022-07-22T07:16:06;7;7;
73414;PMS5003;61633;53.742;-2.990;2022-07-22T07:18:31;10;10;
73414;PMS5003;61633;53.742;-2.990;2022-07-22T07:20:57;8;8;
73414;PMS5003;61633;53.742;-2.990;2022-07-22T07:23:22;9;9;
73414;PMS5003;61633;53.742;-2.990;2022-07-22T07:25:48;11;9;
73414;PMS5003;61633;53.742;-2.990;2022-07-22T07:28:13;10;10;
73414;PMS5003;61633;53.742;-2.990;2022-07-22T07:30:38;10;8;
73414;PMS5003;61633;53.742;-2.990;2022-07-22T07:33:04;12;11;
73414;PMS5003;61633;53.742;-2.990;2022-07-22T07:35:29;6;6;
73414;PMS5003;61633;53.742;-2.990;2022-07-22T07:37:55;7;7;
73414;PMS5003;61633;53.742;-2.990;2022-07-22T07:40:21;10;9;
73414;PMS5003;61633;53.742;-2.990;2022-07-22T07:42:46;11;10;
73414;PMS5003;61633;53.742;-2.990;2022-07-22T07:45:11;10;9;
73414;PMS5003;61633;53.742;-2.990;2022-07-22T07:47:37;9;8;
73414;PMS5003;61633;53.742;-2.990;2022-07-22T07:50:04;10;10;
73414;PMS5003;61633;53.742;-2.990;2022-07-22T07:52:28;9;9;
73414;PMS5003;61633;53.742;-2.990;2022-07-22T07:54:54;9;9;
73414;PMS5003;61633;53.742;-2.990;2022-07-22T07:57:19;11;11;
73414;PMS5003;61633;53.742;-2.990;2022-07-22T07:59:45;9;9;
73414;PMS5003;61633;53.742;-2.990;2022-07-22T08:02:11;11;11;
73414;PMS5003;61633;53.742;-2.990;2022-07-22T08:04:36;13;12;
73414;PMS5003;61633;53.742;-2.990;2022-07-22T08:07:02;12;12;
73414;PMS5003;61633;53.742;-2.990;2022-07-22T08:09:27;8;8;
73414;PMS5003;61633;53.742;-2.990;2022-07-22T08:11:52;7;7;
73414;PMS5003;61633;53.742;-2.990;2022-07-22T08:14:18;12;11;
73414;PMS5003;61633;53.742;-2.990;2022-07-22T08:16:43;10;9;
73414;PMS5003;61633;53.742;-2.990;2022-07-22T08:19:08;9;9;
73414;PMS5003;61633;53.742;-2.990;2022-07-22T08:21:34;7;7;
73414;PMS5003;61633;53.742;-2.990;2022-07-22T08:23:59;10;9;
73414;PMS5003;61633;53.742;-2.990;2022-07-22T08:26:25;10;7;
73414;PMS5003;61633;53.742;-2.990;2022-07-22T08:28:50;11;8;
73414;PMS5003;61633;53.742;-2.990;2022-07-22T08:31:16;10;9;
73414;PMS5003;61633;53.742;-2.990;2022-07-22T08:33:41;12;12;
73414;PMS5003;61633;53.742;-2.990;2022-07-22T08:36:07;6;6;
73414;PMS5003;61633;53.742;-2.990;2022-07-22T08:38:32;9;8;
73414;PMS5003;61633;53.742;-2.990;2022-07-22T08:40:58;9;8;
73414;PMS5003;61633;53.742;-2.990;2022-07-22T08:43:23;9;8;
73414;PMS5003;61633;53.742;-2.990;2022-07-22T08:45:49;12;9;
73414;PMS5003;61633;53.742;-2.990;2022-07-22T08:48:15;8;8;
73414;PMS5003;61633;53.742;-2.990;2022-07-22T08:50:40;7;7;
73414;PMS5003;61633;53.742;-2.990;2022-07-22T08:53:08;7;7;
73414;PMS5003;61633;53.742;-2.990;2022-07-22T08:55:31;9;7;
73414;PMS5003;61633;53.742;-2.990;2022-07-22T08:57:57;9;7;
73414;PMS5003;61633;53.742;-2.990;2022-07-22T09:00:22;9;7;
73414;PMS5003;61633;53.742;-2.990;2022-07-22T09:02:48;11;8;
73414;PMS5003;61633;53.742;-2.990;2022-07-22T09:05:14;9;8;
73414;PMS5003;61633;53.742;-2.990;2022-07-22T09:07:40;8;8;
73414;PMS5003;61633;53.742;-2.990;2022-07-22T09:10:05;5;5;
73414;PMS5003;61633;53.742;-2.990;2022-07-22T09:12:30;14;9;
73414;PMS5003;61633;53.742;-2.990;2022-07-22T09:14:56;6;6;
73414;PMS5003;61633;53.742;-2.990;2022-07-22T09:17:23;5;5;
73414;PMS5003;61633;53.742;-2.990;2022-07-22T09:19:47;8;8;
73414;PMS5003;61633;53.742;-2.990;2022-07-22T09:22:12;7;6;
73414;PMS5003;61633;53.742;-2.990;2022-07-22T09:24:38;6;6;
73414;PMS5003;61633;53.742;-2.990;2022-07-22T09:27:03;7;7;
73414;PMS5003;61633;53.742;-2.990;2022-07-22T09:29:28;10;9;
73414;PMS5003;61633;53.742;-2.990;2022-07-22T09:31:54;7;6;
73414;PMS5003;61633;53.742;-2.990;2022-07-22T09:41:37;7;6;
73414;PMS5003;61633;53.742;-2.990;2022-07-22T09:46:34;8;7;
73414;PMS5003;61633;53.742;-2.990;2022-07-22T09:48:53;8;8;
73414;PMS5003;61633;53.742;-2.990;2022-07-22T09:51:18;7;7;
73414;PMS5003;61633;53.742;-2.990;2022-07-22T09:53:44;8;7;
73414;PMS5003;61633;53.742;-2.990;2022-07-22T09:56:09;9;9;
73414;PMS5003;61633;53.742;-2.990;2022-07-22T09:58:35;8;7;
73414;PMS5003;61633;53.742;-2.990;2022-07-22T10:01:03;8;8;
73414;PMS5003;61633;53.742;-2.990;2022-07-22T10:03:31;9;9;
73414;PMS5003;61633;53.742;-2.990;2022-07-22T10:05:51;7;6;
73414;PMS5003;61633;53.742;-2.990;2022-07-22T10:08:17;10;7;
73414;PMS5003;61633;53.742;-2.990;2022-07-22T10:10:42;8;7;
73414;PMS5003;61633;53.742;-2.990;2022-07-22T10:13:08;6;6;
73414;PMS5003;61633;53.742;-2.990;2022-07-22T10:15:34;5;5;
73414;PMS5003;61633;53.742;-2.990;2022-07-22T10:18:00;6;6;
73414;PMS5003;61633;53.742;-2.990;2022-07-22T10:20:25;7;7;
73414;PMS5003;61633;53.742;-2.990;2022-07-22T10:22:51;6;6;
73414;PMS5003;61633;53.742;-2.990;2022-07-22T10:25:16;7;7;
73414;PMS5003;61633;53.742;-2.990;2022-07-22T10:27:44;3;3;
73414;PMS5003;61633;53.742;-2.990;2022-07-22T10:30:07;8;8;
73414;PMS5003;61633;53.742;-2.990;2022-07-22T10:32:32;7;6;
73414;PMS5003;61633;53.742;-2.990;2022-07-22T10:42:14;8;5;
73414;PMS5003;61633;53.742;-2.990;2022-07-22T10:44:46;10;7;
73414;PMS5003;61633;53.742;-2.990;2022-07-22T10:47:05;6;6;
73414;PMS5003;61633;53.742;-2.990;2022-07-22T10:49:31;7;7;
73414;PMS5003;61633;53.742;-2.990;2022-07-22T10:54:22;6;6;
73414;PMS5003;61633;53.742;-2.990;2022-07-22T10:56:48;4;4;
73414;PMS5003;61633;53.742;-2.990;2022-07-22T10:59:14;7;5;
73414;PMS5003;61633;53.742;-2.990;2022-07-22T11:01:39;5;5;
73414;PMS5003;61633;53.742;-2.990;2022-07-22T11:04:08;8;5;
73414;PMS5003;61633;53.742;-2.990;2022-07-22T11:06:30;7;6;
73414;PMS5003;61633;53.742;-2.990;2022-07-22T11:08:56;6;6;
73414;PMS5003;61633;53.742;-2.990;2022-07-22T11:13:46;5;5;
73414;PMS5003;61633;53.742;-2.990;2022-07-22T11:16:13;6;6;
73414;PMS5003;61633;53.742;-2.990;2022-07-22T11:21:04;7;7;
73414;PMS5003;61633;53.742;-2.990;2022-07-22T11:23:28;7;6;
73414;PMS5003;61633;53.742;-2.990;2022-07-22T11:25:59;4;4;
73414;PMS5003;61633;53.742;-2.990;2022-07-22T11:28:19;5;4;
73414;PMS5003;61633;53.742;-2.990;2022-07-22T11:30:44;5;5;
73414;PMS5003;61633;53.742;-2.990;2022-07-22T11:33:10;4;4;
73414;PMS5003;61633;53.742;-2.990;2022-07-22T11:35:36;7;7;
73414;PMS5003;61633;53.742;-2.990;2022-07-22T11:38:01;5;5;
73414;PMS5003;61633;53.742;-2.990;2022-07-22T11:40:31;7;7;
73414;PMS5003;61633;53.742;-2.990;2022-07-22T11:45:18;6;6;
73414;PMS5003;61633;53.742;-2.990;2022-07-22T11:47:48;7;6;
73414;PMS5003;61633;53.742;-2.990;2022-07-22T11:50:09;10;9;
73414;PMS5003;61633;53.742;-2.990;2022-07-22T11:52:34;9;7;
73414;PMS5003;61633;53.742;-2.990;2022-07-22T11:54:59;8;7;
73414;PMS5003;61633;53.742;-2.990;2022-07-22T11:57:25;10;8;
73414;PMS5003;61633;53.742;-2.990;2022-07-22T11:59:50;9;7;
73414;PMS5003;61633;53.742;-2.990;2022-07-22T12:02:16;8;6;
73414;PMS5003;61633;53.742;-2.990;2022-07-22T12:04:42;5;5;
73414;PMS5003;61633;53.742;-2.990;2022-07-22T12:07:07;8;8;
73414;PMS5003;61633;53.742;-2.990;2022-07-22T12:09:33;12;10;
73414;PMS5003;61633;53.742;-2.990;2022-07-22T12:11:58;8;8;
73414;PMS5003;61633;53.742;-2.990;2022-07-22T12:14:24;5;5;
73414;PMS5003;61633;53.742;-2.990;2022-07-22T12:16:53;10;6;
73414;PMS5003;61633;53.742;-2.990;2022-07-22T12:19:14;8;7;
73414;PMS5003;61633;53.742;-2.990;2022-07-22T12:24:06;5;5;
73414;PMS5003;61633;53.742;-2.990;2022-07-22T12:26:38;8;8;
73414;PMS5003;61633;53.742;-2.990;2022-07-22T12:31:21;7;6;
73414;PMS5003;61633;53.742;-2.990;2022-07-22T12:33:47;10;10;
73414;PMS5003;61633;53.742;-2.990;2022-07-22T12:36:12;9;8;
73414;PMS5003;61633;53.742;-2.990;2022-07-22T12:38:38;6;6;
73414;PMS5003;61633;53.742;-2.990;2022-07-22T12:43:28;8;8;
73414;PMS5003;61633;53.742;-2.990;2022-07-22T12:45:54;9;9;
73414;PMS5003;61633;53.742;-2.990;2022-07-22T12:48:19;8;7;
73414;PMS5003;61633;53.742;-2.990;2022-07-22T12:53:11;7;6;
73414;PMS5003;61633;53.742;-2.990;2022-07-22T12:55:37;9;7;
73414;PMS5003;61633;53.742;-2.990;2022-07-22T12:58:02;6;6;
73414;PMS5003;61633;53.742;-2.990;2022-07-22T13:00:31;8;8;
73414;PMS5003;61633;53.742;-2.990;2022-07-22T13:02:52;7;5;
73414;PMS5003;61633;53.742;-2.990;2022-07-22T13:05:18;7;7;
73414;PMS5003;61633;53.742;-2.990;2022-07-22T13:07:43;6;6;
73414;PMS5003;61633;53.742;-2.990;2022-07-22T13:10:09;7;7;
73414;PMS5003;61633;53.742;-2.990;2022-07-22T13:12:34;8;8;
73414;PMS5003;61633;53.742;-2.990;2022-07-22T13:15:00;5;5;
73414;PMS5003;61633;53.742;-2.990;2022-07-22T13:17:25;10;8;
73414;PMS5003;61633;53.742;-2.990;2022-07-22T13:19:51;11;8;
73414;PMS5003;61633;53.742;-2.990;2022-07-22T13:22:16;8;7;
73414;PMS5003;61633;53.742;-2.990;2022-07-22T13:24:42;9;8;
73414;PMS5003;61633;53.742;-2.990;2022-07-22T13:27:07;8;6;
73414;PMS5003;61633;53.742;-2.990;2022-07-22T13:29:33;7;5;
73414;PMS5003;61633;53.742;-2.990;2022-07-22T13:31:58;6;6;
73414;PMS5003;61633;53.742;-2.990;2022-07-22T13:34:23;6;6;
73414;PMS5003;61633;53.742;-2.990;2022-07-22T13:36:49;5;5;
73414;PMS5003;61633;53.742;-2.990;2022-07-22T13:39:15;5;5;
73414;PMS5003;61633;53.742;-2.990;2022-07-22T13:41:40;8;7;
73414;PMS5003;61633;53.742;-2.990;2022-07-22T13:44:05;6;6;
73414;PMS5003;61633;53.742;-2.990;2022-07-22T13:46:31;6;5;
73414;PMS5003;61633;53.742;-2.990;2022-07-22T13:48:57;5;5;
73414;PMS5003;61633;53.742;-2.990;2022-07-22T13:51:22;5;5;
73414;PMS5003;61633;53.742;-2.990;2022-07-22T13:53:48;8;7;
73414;PMS5003;61633;53.742;-2.990;2022-07-22T13:56:13;6;5;
73414;PMS5003;61633;53.742;-2.990;2022-07-22T13:58:44;6;6;
73414;PMS5003;61633;53.742;-2.990;2022-07-22T14:01:05;9;8;
73414;PMS5003;61633;53.742;-2.990;2022-07-22T14:03:30;5;5;
73414;PMS5003;61633;53.742;-2.990;2022-07-22T14:05:55;7;5;
73414;PMS5003;61633;53.742;-2.990;2022-07-22T14:08:21;7;7;
73414;PMS5003;61633;53.742;-2.990;2022-07-22T14:10:46;6;6;
73414;PMS5003;61633;53.742;-2.990;2022-07-22T14:13:12;5;5;
73414;PMS5003;61633;53.742;-2.990;2022-07-22T14:15:37;8;7;
73414;PMS5003;61633;53.742;-2.990;2022-07-22T14:18:03;5;5;
73414;PMS5003;61633;53.742;-2.990;2022-07-22T14:20:28;8;7;
73414;PMS5003;61633;53.742;-2.990;2022-07-22T14:22:54;6;6;
73414;PMS5003;61633;53.742;-2.990;2022-07-22T14:25:19;6;6;
73414;PMS5003;61633;53.742;-2.990;2022-07-22T14:27:45;6;6;
73414;PMS5003;61633;53.742;-2.990;2022-07-22T14:30:11;6;6;
73414;PMS5003;61633;53.742;-2.990;2022-07-22T14:32:36;6;6;
73414;PMS5003;61633;53.742;-2.990;2022-07-22T14:35:01;5;5;
73414;PMS5003;61633;53.742;-2.990;2022-07-22T14:37:27;8;7;
73414;PMS5003;61633;53.742;-2.990;2022-07-22T14:39:52;5;5;
73414;PMS5003;61633;53.742;-2.990;2022-07-22T14:42:17;6;5;
73414;PMS5003;61633;53.742;-2.990;2022-07-22T14:44:43;7;7;
73414;PMS5003;61633;53.742;-2.990;2022-07-22T14:47:08;7;6;
73414;PMS5003;61633;53.742;-2.990;2022-07-22T14:49:34;6;6;
73414;PMS5003;61633;53.742;-2.990;2022-07-22T14:51:59;6;6;
73414;PMS5003;61633;53.742;-2.990;2022-07-22T14:54:25;8;7;
73414;PMS5003;61633;53.742;-2.990;2022-07-22T14:56:51;5;5;
73414;PMS5003;61633;53.742;-2.990;2022-07-22T14:59:16;8;7;
73414;PMS5003;61633;53.742;-2.990;2022-07-22T15:01:41;5;5;
73414;PMS5003;61633;53.742;-2.990;2022-07-22T15:04:07;8;7;
73414;PMS5003;61633;53.742;-2.990;2022-07-22T15:06:33;9;7;
73414;PMS5003;61633;53.742;-2.990;2022-07-22T15:08:58;8;8;
73414;PMS5003;61633;53.742;-2.990;2022-07-22T15:11:23;7;7;
73414;PMS5003;61633;53.742;-2.990;2022-07-22T15:13:49;6;6;
73414;PMS5003;61633;53.742;-2.990;2022-07-22T15:16:14;8;8;
73414;PMS5003;61633;53.742;-2.990;2022-07-22T15:18:40;6;6;
73414;PMS5003;61633;53.742;-2.990;2022-07-22T15:21:06;8;8;
73414;PMS5003;61633;53.742;-2.990;2022-07-22T15:23:32;12;9;
73414;PMS5003;61633;53.742;-2.990;2022-07-22T15:25:56;7;7;
73414;PMS5003;61633;53.742;-2.990;2022-07-22T15:28:22;8;8;
73414;PMS5003;61633;53.742;-2.990;2022-07-22T15:30:48;8;8;
73414;PMS5003;61633;53.742;-2.990;2022-07-22T15:33:12;8;8;
73414;PMS5003;61633;53.742;-2.990;2022-07-22T15:35:38;7;7;
73414;PMS5003;61633;53.742;-2.990;2022-07-22T15:38:04;7;7;
73414;PMS5003;61633;53.742;-2.990;2022-07-22T15:40:30;8;8;
73414;PMS5003;61633;53.742;-2.990;2022-07-22T15:42:55;7;7;
73414;PMS5003;61633;53.742;-2.990;2022-07-22T15:45:20;9;8;
73414;PMS5003;61633;53.742;-2.990;2022-07-22T15:47:45;8;6;
73414;PMS5003;61633;53.742;-2.990;2022-07-22T15:50:11;9;9;
73414;PMS5003;61633;53.742;-2.990;2022-07-22T15:52:36;11;10;
73414;PMS5003;61633;53.742;-2.990;2022-07-22T15:55:02;8;8;
73414;PMS5003;61633;53.742;-2.990;2022-07-22T15:57:27;9;8;
73414;PMS5003;61633;53.742;-2.990;2022-07-22T15:59:53;10;10;
73414;PMS5003;61633;53.742;-2.990;2022-07-22T16:02:18;10;8;
73414;PMS5003;61633;53.742;-2.990;2022-07-22T16:04:44;10;10;
73414;PMS5003;61633;53.742;-2.990;2022-07-22T16:07:09;8;8;
73414;PMS5003;61633;53.742;-2.990;2022-07-22T16:09:35;9;8;
73414;PMS5003;61633;53.742;-2.990;2022-07-22T16:12:00;7;7;
73414;PMS5003;61633;53.742;-2.990;2022-07-22T16:14:26;8;8;
73414;PMS5003;61633;53.742;-2.990;2022-07-22T16:16:53;10;9;
73414;PMS5003;61633;53.742;-2.990;2022-07-22T16:19:17;8;8;
73414;PMS5003;61633;53.742;-2.990;2022-07-22T16:21:42;9;9;
73414;PMS5003;61633;53.742;-2.990;2022-07-22T16:24:07;8;8;
73414;PMS5003;61633;53.742;-2.990;2022-07-22T16:26:33;11;11;
73414;PMS5003;61633;53.742;-2.990;2022-07-22T16:28:58;10;10;
73414;PMS5003;61633;53.742;-2.990;2022-07-22T16:31:24;12;10;
73414;PMS5003;61633;53.742;-2.990;2022-07-22T16:33:49;11;10;
73414;PMS5003;61633;53.742;-2.990;2022-07-22T16:36:15;12;9;
73414;PMS5003;61633;53.742;-2.990;2022-07-22T16:38:40;10;10;
73414;PMS5003;61633;53.742;-2.990;2022-07-22T16:41:06;9;9;
73414;PMS5003;61633;53.742;-2.990;2022-07-22T16:43:31;8;7;
73414;PMS5003;61633;53.742;-2.990;2022-07-22T16:46:02;8;8;
73414;PMS5003;61633;53.742;-2.990;2022-07-22T16:48:23;12;10;